sensor_id;sensor_type;location;lat;lon;timestamp;pressure;altitude;pressure_sealevel;temperature
20730;BMP280;10526;50.850;12.928;2023-11-18T00:00:35;98501.75;;;4.18
20730;BMP280;10526;50.850;12.928;2023-11-18T00:04:57;98494.97;;;4.17
20730;BMP280;10526;50.850;12.928;2023-11-18T00:09:19;98504.00;;;4.16
20730;BMP280;10526;50.850;12.928;2023-11-18T00:13:42;98510.69;;;4.14
20730;BMP280;10526;50.850;12.928;2023-11-18T00:18:04;98518.28;;;4.15
20730;BMP280;10526;50.850;12.928;2023-11-18T00:22:27;98527.72;;;4.16
20730;BMP280;10526;50.850;12.928;2023-11-18T00:26:50;98525.09;;;4.16
20730;BMP280;10526;50.850;12.928;2023-11-18T00:31:12;98531.88;;;4.17
20730;BMP280;10526;50.850;12.928;2023-11-18T00:35:35;98536.38;;;4.17
20730;BMP280;10526;50.850;12.928;2023-11-18T00:39:57;98531.88;;;4.17
20730;BMP280;10526;50.850;12.928;2023-11-18T00:44:20;98540.91;;;4.16
20730;BMP280;10526;50.850;12.928;2023-11-18T00:48:42;98535.19;;;4.14
20730;BMP280;10526;50.850;12.928;2023-11-18T00:53:06;98542.00;;;4.15
20730;BMP280;10526;50.850;12.928;2023-11-18T00:57:29;98538.91;;;4.13
20730;BMP280;10526;50.850;12.928;2023-11-18T01:01:51;98544.63;;;4.15
20730;BMP280;10526;50.850;12.928;2023-11-18T01:06:13;98548.34;;;4.14
20730;BMP280;10526;50.850;12.928;2023-11-18T01:10:37;98550.22;;;4.14
20730;BMP280;10526;50.850;12.928;2023-11-18T01:15:00;98551.34;;;4.13
20730;BMP280;10526;50.850;12.928;2023-11-18T01:19:23;98548.69;;;4.13
20730;BMP280;10526;50.850;12.928;2023-11-18T01:23:45;98554.47;;;4.18
20730;BMP280;10526;50.850;12.928;2023-11-18T01:28:08;98553.41;;;4.19
20730;BMP280;10526;50.850;12.928;2023-11-18T01:32:31;98561.72;;;4.21
20730;BMP280;10526;50.850;12.928;2023-11-18T01:36:54;98567.00;;;4.21
20730;BMP280;10526;50.850;12.928;2023-11-18T01:41:16;98565.88;;;4.22
20730;BMP280;10526;50.850;12.928;2023-11-18T01:45:40;98566.56;;;4.19
20730;BMP280;10526;50.850;12.928;2023-11-18T01:50:03;98562.06;;;4.20
20730;BMP280;10526;50.850;12.928;2023-11-18T01:54:28;98561.31;;;4.19
20730;BMP280;10526;50.850;12.928;2023-11-18T01:58:52;98563.94;;;4.19
20730;BMP280;10526;50.850;12.928;2023-11-18T02:03:15;98566.38;;;4.12
20730;BMP280;10526;50.850;12.928;2023-11-18T02:07:37;98567.69;;;4.06
20730;BMP280;10526;50.850;12.928;2023-11-18T02:16:42;98572.09;;;4.02
20730;BMP280;10526;50.850;12.928;2023-11-18T02:21:06;98578.00;;;3.99
20730;BMP280;10526;50.850;12.928;2023-11-18T02:25:33;98582.13;;;3.96
20730;BMP280;10526;50.850;12.928;2023-11-18T02:29:56;98597.56;;;3.98
20730;BMP280;10526;50.850;12.928;2023-11-18T02:34:27;98595.81;;;4.02
20730;BMP280;10526;50.850;12.928;2023-11-18T02:38:51;98589.88;;;4.05
20730;BMP280;10526;50.850;12.928;2023-11-18T02:43:17;98591.63;;;4.01
20730;BMP280;10526;50.850;12.928;2023-11-18T02:47:41;98597.56;;;3.98
20730;BMP280;10526;50.850;12.928;2023-11-18T02:52:04;98597.16;;;3.96
20730;BMP280;10526;50.850;12.928;2023-11-18T02:56:27;98603.97;;;3.97
20730;BMP280;10526;50.850;12.928;2023-11-18T03:00:49;98597.16;;;3.96
20730;BMP280;10526;50.850;12.928;2023-11-18T03:05:11;98594.06;;;3.94
20730;BMP280;10526;50.850;12.928;2023-11-18T03:09:34;98603.06;;;3.93
20730;BMP280;10526;50.850;12.928;2023-11-18T03:13:57;98603.84;;;3.93
20730;BMP280;10526;50.850;12.928;2023-11-18T03:18:20;98615.50;;;3.92
20730;BMP280;10526;50.850;12.928;2023-11-18T03:22:46;98602.31;;;3.92
20730;BMP280;10526;50.850;12.928;2023-11-18T03:27:08;98605.81;;;3.96
20730;BMP280;10526;50.850;12.928;2023-11-18T03:31:30;98611.94;;;4.00
20730;BMP280;10526;50.850;12.928;2023-11-18T03:35:52;98606.78;;;4.04
20730;BMP280;10526;50.850;12.928;2023-11-18T03:40:17;98621.16;;;4.07
20730;BMP280;10526;50.850;12.928;2023-11-18T03:44:39;98628.00;;;4.08
20730;BMP280;10526;50.850;12.928;2023-11-18T03:49:04;98634.47;;;4.10
20730;BMP280;10526;50.850;12.928;2023-11-18T03:53:26;98624.91;;;4.06
20730;BMP280;10526;50.850;12.928;2023-11-18T03:57:48;98627.53;;;4.06
20730;BMP280;10526;50.850;12.928;2023-11-18T04:02:10;98634.91;;;4.00
20730;BMP280;10526;50.850;12.928;2023-11-18T04:06:33;98635.22;;;3.98
20730;BMP280;10526;50.850;12.928;2023-11-18T04:10:55;98641.25;;;3.99
20730;BMP280;10526;50.850;12.928;2023-11-18T04:15:17;98639.72;;;3.98
20730;BMP280;10526;50.850;12.928;2023-11-18T04:19:48;98645.00;;;3.98
20730;BMP280;10526;50.850;12.928;2023-11-18T04:24:11;98649.41;;;3.94
20730;BMP280;10526;50.850;12.928;2023-11-18T04:28:34;98641.97;;;3.96
20730;BMP280;10526;50.850;12.928;2023-11-18T04:32:57;98640.28;;;3.91
20730;BMP280;10526;50.850;12.928;2023-11-18T04:37:20;98651.94;;;3.90
20730;BMP280;10526;50.850;12.928;2023-11-18T04:41:42;98659.72;;;3.87
20730;BMP280;10526;50.850;12.928;2023-11-18T04:46:05;98663.44;;;3.86
20730;BMP280;10526;50.850;12.928;2023-11-18T04:50:28;98659.28;;;3.85
20730;BMP280;10526;50.850;12.928;2023-11-18T04:54:54;98654.31;;;3.83
20730;BMP280;10526;50.850;12.928;2023-11-18T04:59:16;98658.81;;;3.83
20730;BMP280;10526;50.850;12.928;2023-11-18T05:03:39;98654.19;;;3.80
20730;BMP280;10526;50.850;12.928;2023-11-18T05:08:02;98656.53;;;3.81
20730;BMP280;10526;50.850;12.928;2023-11-18T05:12:25;98657.28;;;3.82
20730;BMP280;10526;50.850;12.928;2023-11-18T05:16:48;98653.56;;;3.83
20730;BMP280;10526;50.850;12.928;2023-11-18T05:21:13;98650.59;;;3.84
20730;BMP280;10526;50.850;12.928;2023-11-18T05:25:36;98640.84;;;3.85
20730;BMP280;10526;50.850;12.928;2023-11-18T05:29:58;98640.84;;;3.85
20730;BMP280;10526;50.850;12.928;2023-11-18T05:34:21;98652.03;;;3.82
20730;BMP280;10526;50.850;12.928;2023-11-18T05:38:44;98652.03;;;3.82
20730;BMP280;10526;50.850;12.928;2023-11-18T05:43:07;98652.66;;;3.79
20730;BMP280;10526;50.850;12.928;2023-11-18T05:47:38;98657.94;;;3.79
20730;BMP280;10526;50.850;12.928;2023-11-18T05:52:01;98661.16;;;3.84
20730;BMP280;10526;50.850;12.928;2023-11-18T05:56:29;98662.69;;;3.85
20730;BMP280;10526;50.850;12.928;2023-11-18T06:00:52;98667.06;;;3.81
20730;BMP280;10526;50.850;12.928;2023-11-18T06:05:14;98670.00;;;3.80
20730;BMP280;10526;50.850;12.928;2023-11-18T06:09:36;98663.19;;;3.79
20730;BMP280;10526;50.850;12.928;2023-11-18T06:14:03;98660.13;;;3.77
20730;BMP280;10526;50.850;12.928;2023-11-18T06:18:26;98659.34;;;3.76
20730;BMP280;10526;50.850;12.928;2023-11-18T06:22:48;98657.41;;;3.73
20730;BMP280;10526;50.850;12.928;2023-11-18T06:27:11;98654.44;;;3.74
20730;BMP280;10526;50.850;12.928;2023-11-18T06:31:36;98649.81;;;3.71
20730;BMP280;10526;50.850;12.928;2023-11-18T06:35:58;98654.31;;;3.71
20730;BMP280;10526;50.850;12.928;2023-11-18T06:40:22;98652.44;;;3.71
20730;BMP280;10526;50.850;12.928;2023-11-18T06:44:48;98665.75;;;3.75
20730;BMP280;10526;50.850;12.928;2023-11-18T06:49:11;98663.31;;;3.82
20730;BMP280;10526;50.850;12.928;2023-11-18T06:53:37;98670.88;;;3.84
20730;BMP280;10526;50.850;12.928;2023-11-18T06:58:00;98670.88;;;3.84
20730;BMP280;10526;50.850;12.928;2023-11-18T07:02:23;98666.50;;;3.88
20730;BMP280;10526;50.850;12.928;2023-11-18T07:06:45;98681.03;;;3.94
20730;BMP280;10526;50.850;12.928;2023-11-18T07:11:07;98673.63;;;3.99
20730;BMP280;10526;50.850;12.928;2023-11-18T07:15:29;98680.38;;;4.09
20730;BMP280;10526;50.850;12.928;2023-11-18T07:19:52;98685.97;;;4.20
20730;BMP280;10526;50.850;12.928;2023-11-18T07:24:15;98687.63;;;4.37
20730;BMP280;10526;50.850;12.928;2023-11-18T07:28:42;98696.19;;;4.46
20730;BMP280;10526;50.850;12.928;2023-11-18T07:33:06;98708.22;;;4.59
20730;BMP280;10526;50.850;12.928;2023-11-18T07:37:30;98712.84;;;4.74
20730;BMP280;10526;50.850;12.928;2023-11-18T07:41:55;98722.94;;;4.85
20730;BMP280;10526;50.850;12.928;2023-11-18T07:46:25;98721.59;;;4.91
20730;BMP280;10526;50.850;12.928;2023-11-18T07:50:47;98722.56;;;4.98
20730;BMP280;10526;50.850;12.928;2023-11-18T07:55:10;98722.47;;;4.95
20730;BMP280;10526;50.850;12.928;2023-11-18T07:59:34;98731.09;;;4.92
20730;BMP280;10526;50.850;12.928;2023-11-18T08:03:56;98734.09;;;5.06
20730;BMP280;10526;50.850;12.928;2023-11-18T08:08:18;98733.78;;;5.08
20730;BMP280;10526;50.850;12.928;2023-11-18T08:12:41;98743.72;;;5.14
20730;BMP280;10526;50.850;12.928;2023-11-18T08:17:05;98737.59;;;5.22
20730;BMP280;10526;50.850;12.928;2023-11-18T08:21:28;98761.88;;;5.28
20730;BMP280;10526;50.850;12.928;2023-11-18T08:25:51;98751.16;;;5.37
20730;BMP280;10526;50.850;12.928;2023-11-18T08:30:14;98748.44;;;5.49
20730;BMP280;10526;50.850;12.928;2023-11-18T08:34:39;98753.00;;;5.64
20730;BMP280;10526;50.850;12.928;2023-11-18T08:39:02;98758.41;;;5.83
20730;BMP280;10526;50.850;12.928;2023-11-18T08:43:26;98747.41;;;6.13
20730;BMP280;10526;50.850;12.928;2023-11-18T08:47:50;98758.00;;;6.29
20730;BMP280;10526;50.850;12.928;2023-11-18T08:52:15;98760.00;;;6.51
20730;BMP280;10526;50.850;12.928;2023-11-18T08:56:39;98753.69;;;6.75
20730;BMP280;10526;50.850;12.928;2023-11-18T09:01:04;98744.03;;;7.02
20730;BMP280;10526;50.850;12.928;2023-11-18T09:05:36;98746.56;;;7.14
20730;BMP280;10526;50.850;12.928;2023-11-18T09:09:58;98745.06;;;7.56
20730;BMP280;10526;50.850;12.928;2023-11-18T09:14:25;98753.22;;;8.16
20730;BMP280;10526;50.850;12.928;2023-11-18T09:18:49;98756.13;;;9.24
20730;BMP280;10526;50.850;12.928;2023-11-18T09:23:14;98767.84;;;10.04
20730;BMP280;10526;50.850;12.928;2023-11-18T09:27:37;98770.13;;;10.09
20730;BMP280;10526;50.850;12.928;2023-11-18T09:32:01;98777.06;;;10.18
20730;BMP280;10526;50.850;12.928;2023-11-18T09:36:27;98782.50;;;10.39
20730;BMP280;10526;50.850;12.928;2023-11-18T09:40:55;98777.91;;;10.29
20730;BMP280;10526;50.850;12.928;2023-11-18T09:45:18;98779.81;;;9.80
20730;BMP280;10526;50.850;12.928;2023-11-18T09:49:45;98772.31;;;10.48
20730;BMP280;10526;50.850;12.928;2023-11-18T10:00:04;98785.59;;;10.52
20730;BMP280;10526;50.850;12.928;2023-11-18T10:04:42;98785.72;;;9.63
20730;BMP280;10526;50.850;12.928;2023-11-18T10:09:08;98786.13;;;9.24
20730;BMP280;10526;50.850;12.928;2023-11-18T10:13:41;98788.41;;;8.92
20730;BMP280;10526;50.850;12.928;2023-11-18T10:18:06;98787.56;;;8.58
20730;BMP280;10526;50.850;12.928;2023-11-18T10:22:29;98781.00;;;8.22
20730;BMP280;10526;50.850;12.928;2023-11-18T10:26:55;98774.69;;;8.07
20730;BMP280;10526;50.850;12.928;2023-11-18T10:31:19;98767.91;;;8.10
20730;BMP280;10526;50.850;12.928;2023-11-18T10:35:52;98752.88;;;7.94
20730;BMP280;10526;50.850;12.928;2023-11-18T10:40:18;98737.25;;;8.12
20730;BMP280;10526;50.850;12.928;2023-11-18T10:44:59;98755.19;;;8.45
20730;BMP280;10526;50.850;12.928;2023-11-18T10:49:28;98742.28;;;8.47
20730;BMP280;10526;50.850;12.928;2023-11-18T10:53:55;98741.06;;;9.01
20730;BMP280;10526;50.850;12.928;2023-11-18T10:58:22;98752.69;;;9.64
20730;BMP280;10526;50.850;12.928;2023-11-18T11:02:47;98758.75;;;9.61
20730;BMP280;10526;50.850;12.928;2023-11-18T11:07:13;98745.75;;;9.12
20730;BMP280;10526;50.850;12.928;2023-11-18T11:11:52;98758.72;;;8.57
20730;BMP280;10526;50.850;12.928;2023-11-18T11:16:18;98753.72;;;8.25
20730;BMP280;10526;50.850;12.928;2023-11-18T11:25:28;98744.66;;;8.00
20730;BMP280;10526;50.850;12.928;2023-11-18T11:30:02;98749.69;;;8.08
20730;BMP280;10526;50.850;12.928;2023-11-18T11:34:33;98743.03;;;8.48
20730;BMP280;10526;50.850;12.928;2023-11-18T11:38:57;98737.75;;;8.78
20730;BMP280;10526;50.850;12.928;2023-11-18T11:43:21;98735.38;;;8.69
20730;BMP280;10526;50.850;12.928;2023-11-18T11:47:44;98732.09;;;8.50
20730;BMP280;10526;50.850;12.928;2023-11-18T11:52:26;98723.09;;;8.05
20730;BMP280;10526;50.850;12.928;2023-11-18T11:56:50;98710.69;;;7.86
20730;BMP280;10526;50.850;12.928;2023-11-18T12:01:26;98702.22;;;7.54
20730;BMP280;10526;50.850;12.928;2023-11-18T12:05:57;98695.34;;;7.49
20730;BMP280;10526;50.850;12.928;2023-11-18T12:10:35;98691.97;;;7.52
20730;BMP280;10526;50.850;12.928;2023-11-18T12:14:59;98684.19;;;7.63
20730;BMP280;10526;50.850;12.928;2023-11-18T12:19:43;98663.66;;;7.56
20730;BMP280;10526;50.850;12.928;2023-11-18T12:24:16;98664.13;;;7.62
20730;BMP280;10526;50.850;12.928;2023-11-18T12:28:41;98642.53;;;7.63
20730;BMP280;10526;50.850;12.928;2023-11-18T12:33:08;98636.06;;;7.61
20730;BMP280;10526;50.850;12.928;2023-11-18T12:42:59;98621.00;;;7.65
20730;BMP280;10526;50.850;12.928;2023-11-18T12:47:24;98623.75;;;7.72
20730;BMP280;10526;50.850;12.928;2023-11-18T12:51:53;98620.31;;;7.68
20730;BMP280;10526;50.850;12.928;2023-11-18T12:56:17;98615.78;;;7.46
20730;BMP280;10526;50.850;12.928;2023-11-18T13:00:41;98613.34;;;7.37
20730;BMP280;10526;50.850;12.928;2023-11-18T13:05:06;98599.59;;;7.28
20730;BMP280;10526;50.850;12.928;2023-11-18T13:09:31;98582.63;;;7.09
20730;BMP280;10526;50.850;12.928;2023-11-18T13:13:57;98581.78;;;6.82
20730;BMP280;10526;50.850;12.928;2023-11-18T13:18:21;98607.34;;;6.75
20730;BMP280;10526;50.850;12.928;2023-11-18T13:22:43;98608.84;;;6.72
20730;BMP280;10526;50.850;12.928;2023-11-18T13:27:09;98628.69;;;6.82
20730;BMP280;10526;50.850;12.928;2023-11-18T13:31:32;98628.00;;;6.85
20730;BMP280;10526;50.850;12.928;2023-11-18T13:35:55;98621.50;;;6.82
20730;BMP280;10526;50.850;12.928;2023-11-18T13:40:17;98617.13;;;6.71
20730;BMP280;10526;50.850;12.928;2023-11-18T13:44:40;98611.50;;;6.53
20730;BMP280;10526;50.850;12.928;2023-11-18T13:49:06;98617.66;;;6.41
20730;BMP280;10526;50.850;12.928;2023-11-18T13:53:28;98614.81;;;6.30
20730;BMP280;10526;50.850;12.928;2023-11-18T13:57:52;98607.03;;;6.22
20730;BMP280;10526;50.850;12.928;2023-11-18T14:02:15;98607.78;;;6.19
20730;BMP280;10526;50.850;12.928;2023-11-18T14:06:40;98612.28;;;6.18
20730;BMP280;10526;50.850;12.928;2023-11-18T14:11:05;98610.03;;;6.20
20730;BMP280;10526;50.850;12.928;2023-11-18T14:15:37;98602.13;;;6.20
20730;BMP280;10526;50.850;12.928;2023-11-18T14:19:59;98594.88;;;6.17
20730;BMP280;10526;50.850;12.928;2023-11-18T14:24:21;98596.28;;;6.11
20730;BMP280;10526;50.850;12.928;2023-11-18T14:28:57;98601.75;;;6.02
20730;BMP280;10526;50.850;12.928;2023-11-18T14:33:21;98578.06;;;5.90
20730;BMP280;10526;50.850;12.928;2023-11-18T14:37:44;98575.16;;;5.79
20730;BMP280;10526;50.850;12.928;2023-11-18T14:42:07;98569.22;;;5.67
20730;BMP280;10526;50.850;12.928;2023-11-18T14:46:31;98556.13;;;5.54
20730;BMP280;10526;50.850;12.928;2023-11-18T14:50:53;98558.53;;;5.44
20730;BMP280;10526;50.850;12.928;2023-11-18T14:55:18;98544.97;;;5.29
20730;BMP280;10526;50.850;12.928;2023-11-18T14:59:41;98540.53;;;5.18
20730;BMP280;10526;50.850;12.928;2023-11-18T15:04:04;98550.78;;;5.03
20730;BMP280;10526;50.850;12.928;2023-11-18T15:08:29;98555.59;;;4.86
20730;BMP280;10526;50.850;12.928;2023-11-18T15:12:57;98552.56;;;4.71
20730;BMP280;10526;50.850;12.928;2023-11-18T15:17:20;98542.81;;;4.60
20730;BMP280;10526;50.850;12.928;2023-11-18T15:21:47;98536.84;;;4.47
20730;BMP280;10526;50.850;12.928;2023-11-18T15:26:10;98507.56;;;4.36
20730;BMP280;10526;50.850;12.928;2023-11-18T15:30:35;98507.69;;;4.28
20730;BMP280;10526;50.850;12.928;2023-11-18T15:34:57;98510.59;;;4.10
20730;BMP280;10526;50.850;12.928;2023-11-18T15:39:20;98506.59;;;3.88
20730;BMP280;10526;50.850;12.928;2023-11-18T15:43:42;98505.06;;;3.75
20730;BMP280;10526;50.850;12.928;2023-11-18T15:48:04;98495.38;;;3.79
20730;BMP280;10526;50.850;12.928;2023-11-18T15:52:27;98498.47;;;3.81
20730;BMP280;10526;50.850;12.928;2023-11-18T15:56:50;98495.59;;;3.86
20730;BMP280;10526;50.850;12.928;2023-11-18T16:01:13;98482.97;;;3.92
20730;BMP280;10526;50.850;12.928;2023-11-18T16:05:36;98481.22;;;3.96
20730;BMP280;10526;50.850;12.928;2023-11-18T16:09:58;98462.78;;;3.96
20730;BMP280;10526;50.850;12.928;2023-11-18T16:14:21;98467.25;;;3.95
20730;BMP280;10526;50.850;12.928;2023-11-18T16:18:43;98464.31;;;3.97
20730;BMP280;10526;50.850;12.928;2023-11-18T16:23:05;98462.41;;;3.97
20730;BMP280;10526;50.850;12.928;2023-11-18T16:27:28;98461.66;;;3.97
20730;BMP280;10526;50.850;12.928;2023-11-18T16:31:50;98462.41;;;3.97
20730;BMP280;10526;50.850;12.928;2023-11-18T16:36:21;98456.78;;;3.99
20730;BMP280;10526;50.850;12.928;2023-11-18T16:40:47;98454.59;;;4.01
20730;BMP280;10526;50.850;12.928;2023-11-18T16:45:13;98440.53;;;4.09
20730;BMP280;10526;50.850;12.928;2023-11-18T16:49:36;98434.34;;;4.17
20730;BMP280;10526;50.850;12.928;2023-11-18T16:53:58;98436.81;;;4.26
20730;BMP280;10526;50.850;12.928;2023-11-18T16:58:20;98444.16;;;4.33
20730;BMP280;10526;50.850;12.928;2023-11-18T17:02:47;98440.53;;;4.37
20730;BMP280;10526;50.850;12.928;2023-11-18T17:07:13;98440.53;;;4.37
20730;BMP280;10526;50.850;12.928;2023-11-18T17:11:36;98433.38;;;4.38
20730;BMP280;10526;50.850;12.928;2023-11-18T17:15:58;98425.81;;;4.36
20730;BMP280;10526;50.850;12.928;2023-11-18T17:20:21;98428.78;;;4.35
20730;BMP280;10526;50.850;12.928;2023-11-18T17:24:45;98426.16;;;4.35
20730;BMP280;10526;50.850;12.928;2023-11-18T17:29:08;98421.97;;;4.34
20730;BMP280;10526;50.850;12.928;2023-11-18T17:33:30;98408.03;;;4.33
20730;BMP280;10526;50.850;12.928;2023-11-18T17:37:56;98410.34;;;4.35
20730;BMP280;10526;50.850;12.928;2023-11-18T17:42:18;98397.56;;;4.37
20730;BMP280;10526;50.850;12.928;2023-11-18T17:46:42;98399.91;;;4.38
20730;BMP280;10526;50.850;12.928;2023-11-18T17:51:04;98403.47;;;4.46
20730;BMP280;10526;50.850;12.928;2023-11-18T17:55:26;98392.66;;;4.51
20730;BMP280;10526;50.850;12.928;2023-11-18T17:59:49;98392.41;;;4.56
20730;BMP280;10526;50.850;12.928;2023-11-18T18:04:14;98394.44;;;4.63
20730;BMP280;10526;50.850;12.928;2023-11-18T18:08:37;98393.00;;;4.65
20730;BMP280;10526;50.850;12.928;2023-11-18T18:12:59;98375.41;;;4.69
20730;BMP280;10526;50.850;12.928;2023-11-18T18:17:22;98359.31;;;4.74
20730;BMP280;10526;50.850;12.928;2023-11-18T18:21:44;98362.38;;;4.76
20730;BMP280;10526;50.850;12.928;2023-11-18T18:26:06;98349.94;;;4.77
20730;BMP280;10526;50.850;12.928;2023-11-18T18:30:28;98356.66;;;4.74
20730;BMP280;10526;50.850;12.928;2023-11-18T18:34:50;98353.28;;;4.74
20730;BMP280;10526;50.850;12.928;2023-11-18T18:39:13;98344.91;;;4.72
20730;BMP280;10526;50.850;12.928;2023-11-18T18:43:35;98330.19;;;4.71
20730;BMP280;10526;50.850;12.928;2023-11-18T18:47:57;98314.63;;;4.66
20730;BMP280;10526;50.850;12.928;2023-11-18T18:52:21;98307.75;;;4.61
20730;BMP280;10526;50.850;12.928;2023-11-18T18:56:43;98282.06;;;4.58
20730;BMP280;10526;50.850;12.928;2023-11-18T19:01:09;98299.41;;;4.59
20730;BMP280;10526;50.850;12.928;2023-11-18T19:05:34;98279.75;;;4.57
20730;BMP280;10526;50.850;12.928;2023-11-18T19:09:58;98275.59;;;4.56
20730;BMP280;10526;50.850;12.928;2023-11-18T19:14:20;98278.66;;;4.58
20730;BMP280;10526;50.850;12.928;2023-11-18T19:18:44;98254.94;;;4.58
20730;BMP280;10526;50.850;12.928;2023-11-18T19:23:07;98268.50;;;4.60
20730;BMP280;10526;50.850;12.928;2023-11-18T19:27:30;98273.88;;;4.63
20730;BMP280;10526;50.850;12.928;2023-11-18T19:31:52;98267.91;;;4.66
20730;BMP280;10526;50.850;12.928;2023-11-18T19:36:16;98270.19;;;4.68
20730;BMP280;10526;50.850;12.928;2023-11-18T19:40:38;98256.78;;;4.73
20730;BMP280;10526;50.850;12.928;2023-11-18T19:45:00;98245.16;;;4.77
20730;BMP280;10526;50.850;12.928;2023-11-18T19:49:22;98238.09;;;4.82
20730;BMP280;10526;50.850;12.928;2023-11-18T19:53:44;98236.66;;;4.84
20730;BMP280;10526;50.850;12.928;2023-11-18T19:58:06;98229.91;;;4.87
20730;BMP280;10526;50.850;12.928;2023-11-18T20:02:29;98216.38;;;4.88
20730;BMP280;10526;50.850;12.928;2023-11-18T20:06:52;98211.88;;;4.89
20730;BMP280;10526;50.850;12.928;2023-11-18T20:11:14;98207.00;;;4.91
20730;BMP280;10526;50.850;12.928;2023-11-18T20:15:38;98207.00;;;4.91
20730;BMP280;10526;50.850;12.928;2023-11-18T20:20:00;98199.06;;;4.91
20730;BMP280;10526;50.850;12.928;2023-11-18T20:24:24;98199.84;;;4.91
20730;BMP280;10526;50.850;12.928;2023-11-18T20:28:46;98197.19;;;4.91
20730;BMP280;10526;50.850;12.928;2023-11-18T20:33:08;98193.81;;;4.91
20730;BMP280;10526;50.850;12.928;2023-11-18T20:37:31;98188.19;;;4.92
20730;BMP280;10526;50.850;12.928;2023-11-18T20:41:54;98197.63;;;4.93
20730;BMP280;10526;50.850;12.928;2023-11-18T20:46:16;98176.53;;;4.93
20730;BMP280;10526;50.850;12.928;2023-11-18T20:50:38;98184.00;;;4.91
20730;BMP280;10526;50.850;12.928;2023-11-18T20:55:00;98155.34;;;4.90
20730;BMP280;10526;50.850;12.928;2023-11-18T20:59:23;98168.09;;;4.88
20730;BMP280;10526;50.850;12.928;2023-11-18T21:03:46;98150.41;;;4.88
20730;BMP280;10526;50.850;12.928;2023-11-18T21:08:09;98147.69;;;4.85
20730;BMP280;10526;50.850;12.928;2023-11-18T21:12:33;98131.03;;;4.81
20730;BMP280;10526;50.850;12.928;2023-11-18T21:16:56;98130.97;;;4.77
20730;BMP280;10526;50.850;12.928;2023-11-18T21:21:18;98121.44;;;4.72
20730;BMP280;10526;50.850;12.928;2023-11-18T21:25:41;98141.72;;;4.68
20730;BMP280;10526;50.850;12.928;2023-11-18T21:30:04;98125.88;;;4.68
20730;BMP280;10526;50.850;12.928;2023-11-18T21:34:27;98094.22;;;4.68
20730;BMP280;10526;50.850;12.928;2023-11-18T21:38:49;98097.16;;;4.63
20730;BMP280;10526;50.850;12.928;2023-11-18T21:43:14;98092.03;;;4.51
20730;BMP280;10526;50.850;12.928;2023-11-18T21:47:37;98072.16;;;4.38
20730;BMP280;10526;50.850;12.928;2023-11-18T21:51:59;98079.78;;;4.23
20730;BMP280;10526;50.850;12.928;2023-11-18T21:56:22;98076.25;;;4.16
20730;BMP280;10526;50.850;12.928;2023-11-18T22:00:45;98071.66;;;4.13
20730;BMP280;10526;50.850;12.928;2023-11-18T22:05:07;98077.63;;;4.10
20730;BMP280;10526;50.850;12.928;2023-11-18T22:09:30;98058.41;;;4.09
20730;BMP280;10526;50.850;12.928;2023-11-18T22:13:54;98034.59;;;4.06
20730;BMP280;10526;50.850;12.928;2023-11-18T22:18:18;98043.53;;;4.01
20730;BMP280;10526;50.850;12.928;2023-11-18T22:22:40;98011.13;;;3.97
20730;BMP280;10526;50.850;12.928;2023-11-18T22:27:02;98005.97;;;3.85
20730;BMP280;10526;50.850;12.928;2023-11-18T22:31:24;98005.03;;;3.77
20730;BMP280;10526;50.850;12.928;2023-11-18T22:35:47;97997.41;;;3.72
20730;BMP280;10526;50.850;12.928;2023-11-18T22:40:10;97990.97;;;3.69
20730;BMP280;10526;50.850;12.928;2023-11-18T22:44:37;97964.56;;;3.66
20730;BMP280;10526;50.850;12.928;2023-11-18T22:49:00;97968.63;;;3.63
20730;BMP280;10526;50.850;12.928;2023-11-18T22:53:22;97964.47;;;3.62
20730;BMP280;10526;50.850;12.928;2023-11-18T22:57:45;97953.94;;;3.62
20730;BMP280;10526;50.850;12.928;2023-11-18T23:02:08;97953.19;;;3.62
20730;BMP280;10526;50.850;12.928;2023-11-18T23:06:37;97930.16;;;3.59
20730;BMP280;10526;50.850;12.928;2023-11-18T23:11:01;97931.59;;;3.56
20730;BMP280;10526;50.850;12.928;2023-11-18T23:15:24;97903.00;;;3.55
20730;BMP280;10526;50.850;12.928;2023-11-18T23:19:47;97897.22;;;3.49
20730;BMP280;10526;50.850;12.928;2023-11-18T23:24:11;97882.16;;;3.46
20730;BMP280;10526;50.850;12.928;2023-11-18T23:28:34;97852.00;;;3.43
20730;BMP280;10526;50.850;12.928;2023-11-18T23:32:57;97827.13;;;3.41
20730;BMP280;10526;50.850;12.928;2023-11-18T23:37:19;97824.84;;;3.39
20730;BMP280;10526;50.850;12.928;2023-11-18T23:41:42;97801.47;;;3.38
20730;BMP280;10526;50.850;12.928;2023-11-18T23:46:04;97788.31;;;3.38
20730;BMP280;10526;50.850;12.928;2023-11-18T23:50:28;97781.63;;;3.40
20730;BMP280;10526;50.850;12.928;2023-11-18T23:54:53;97760.22;;;3.42
20730;BMP280;10526;50.850;12.928;2023-11-18T23:59:16;97754.25;;;3.45
